Terminal Aerodrome Forecast
Issued by NWS Corpus Christi, TX

Current Version | Previous Version | Text Only | Print | Product List | Glossary On
Versions: 1 2 3 4 5 6 7 8 9 10 11 12 13 14 15
000
FTUS44 KCRP 310500
TAFVCT
TAF
KVCT 310535Z 3106/0106 17006KT P6SM SCT250
     FM310900 VRB03KT P6SM SCT012
      TEMPO 3111/3115 6SM BR BKN012
     FM311500 20008KT P6SM SCT025
      TEMPO 3115/3117 BKN025
     FM311700 17013KT P6SM SCT035 SCT250=

USA.gov is the U.S. government's official web portal to all federal, state and local government web resources and services.